Time;durP1;ratioP1;P1;durP2;ratioP2;P2;SDS_P1;SDS_P2;PMS_P1;PMS_P2;Temp;Humidity;BMP_temperature;BMP_pressure;BME280_temperature;BME280_humidity;BME280_pressure;Samples;Min_cycle;Max_cycle;Signal;HPM_P1;HPM_P2
2022/07/14 00:02:12;;;;;;;12.25;3.45;;;19.10;74.10;;;;;;5049555;28;20036;-80
2022/07/14 00:04:38;;;;;;;11.00;4.10;;;18.90;72.90;;;;;;5058554;28;20033;-80
2022/07/14 00:07:04;;;;;;;13.65;4.13;;;18.80;80.30;;;;;;5045055;28;20512;-79
2022/07/14 00:09:29;;;;;;;10.10;3.83;;;18.90;78.30;;;;;;5055195;28;20107;-80
2022/07/14 00:11:55;;;;;;;14.38;4.07;;;18.80;75.90;;;;;;5012400;28;20031;-79
2022/07/14 00:14:20;;;;;;;17.35;5.30;;;18.70;76.30;;;;;;5039522;28;20051;-80
2022/07/14 00:16:46;;;;;;;12.05;3.75;;;18.50;75.40;;;;;;5058784;28;20039;-80
2022/07/14 00:19:11;;;;;;;9.45;3.47;;;18.70;77.80;;;;;;5051305;28;20077;-80
2022/07/14 00:21:37;;;;;;;7.80;3.55;;;18.70;76.70;;;;;;5054149;28;20035;-79
2022/07/14 00:24:03;;;;;;;10.02;4.07;;;18.60;75.70;;;;;;5011855;28;20087;-79
2022/07/14 00:26:28;;;;;;;9.93;3.75;;;18.60;76.40;;;;;;5041964;28;20418;-79
2022/07/14 00:28:54;;;;;;;8.82;3.35;;;18.50;75.00;;;;;;5013398;28;20032;-79
2022/07/14 00:31:19;;;;;;;12.77;4.05;;;18.40;75.40;;;;;;5046187;28;20499;-79
2022/07/14 00:33:45;;;;;;;9.93;4.35;;;18.40;76.80;;;;;;5055170;28;20031;-79
2022/07/14 00:36:10;;;;;;;10.27;4.18;;;18.40;78.00;;;;;;5053788;28;20036;-79
2022/07/14 00:38:36;;;;;;;12.20;4.32;;;18.40;78.20;;;;;;5044497;28;20231;-80
2022/07/14 00:41:02;;;;;;;12.88;5.13;;;18.30;76.00;;;;;;5053934;28;20340;-79
2022/07/14 00:43:27;;;;;;;11.65;4.55;;;18.90;76.60;;;;;;5056840;28;20033;-80
2022/07/14 00:45:53;;;;;;;15.30;4.68;;;18.20;77.50;;;;;;5043868;28;20043;-79
2022/07/14 00:48:22;;;;;;;14.82;5.15;;;18.20;77.50;;;;;;5042489;28;20485;-79
2022/07/14 00:50:48;;;;;;;16.30;4.28;;;18.10;78.00;;;;;;5042262;28;20040;-79
2022/07/14 00:53:13;;;;;;;12.65;5.13;;;18.10;85.80;;;;;;5057157;28;20392;-80
2022/07/14 00:55:40;;;;;;;10.82;5.07;;;18.00;85.70;;;;;;5053281;28;20068;-79
2022/07/14 00:58:05;;;;;;;14.07;4.88;;;18.10;81.70;;;;;;5052829;28;20389;-79
2022/07/14 01:00:31;;;;;;;10.88;4.70;;;18.00;80.50;;;;;;5039536;28;20043;-79
2022/07/14 01:02:56;;;;;;;17.98;5.63;;;18.00;82.30;;;;;;5050064;28;20037;-80
2022/07/14 01:05:22;;;;;;;16.20;5.22;;;17.90;79.50;;;;;;5040989;28;20031;-79
2022/07/14 01:07:48;;;;;;;13.38;4.80;;;17.80;79.90;;;;;;5051636;28;20059;-80
2022/07/14 01:10:14;;;;;;;15.60;5.03;;;17.80;79.80;;;;;;5052381;28;20040;-79
2022/07/14 01:12:45;;;;;;;13.40;5.13;;;17.80;78.70;;;;;;5041542;28;20052;-79
2022/07/14 01:15:11;;;;;;;11.23;4.32;;;17.90;78.20;;;;;;5046211;28;20039;-79
2022/07/14 01:17:36;;;;;;;16.60;4.90;;;17.80;81.90;;;;;;5052997;28;20036;-79
2022/07/14 01:20:03;;;;;;;22.90;4.63;;;17.70;79.70;;;;;;5029882;28;20387;-79
2022/07/14 01:22:29;;;;;;;18.75;4.43;;;17.70;80.70;;;;;;5054920;28;20033;-80
2022/07/14 01:24:55;;;;;;;15.25;5.10;;;17.80;83.50;;;;;;5057121;28;20115;-79
2022/07/14 01:27:20;;;;;;;16.42;4.43;;;17.60;86.20;;;;;;5054416;28;20048;-79
2022/07/14 01:29:46;;;;;;;16.40;4.47;;;17.60;84.40;;;;;;5044723;28;20040;-79
2022/07/14 01:32:11;;;;;;;18.05;4.78;;;17.60;85.90;;;;;;5038821;28;20029;-79
2022/07/14 01:34:37;;;;;;;10.73;4.40;;;17.40;82.70;;;;;;5048922;28;20031;-79
2022/07/14 01:37:02;;;;;;;12.43;4.53;;;17.40;81.40;;;;;;5046294;28;20115;-79
2022/07/14 01:39:28;;;;;;;22.23;5.13;;;17.30;84.90;;;;;;5049597;28;20082;-79
2022/07/14 01:41:53;;;;;;;13.98;4.25;;;17.40;82.30;;;;;;5053017;28;20165;-79
2022/07/14 01:44:19;;;;;;;15.40;4.53;;;17.40;83.60;;;;;;5049904;28;20021;-79
2022/07/14 01:46:45;;;;;;;17.55;4.47;;;17.30;83.30;;;;;;5051922;28;20029;-79
2022/07/14 01:49:10;;;;;;;13.13;4.35;;;17.30;82.40;;;;;;5049092;28;20032;-79
2022/07/14 01:51:36;;;;;;;17.73;4.28;;;17.30;88.80;;;;;;5054701;28;20069;-79
2022/07/14 01:54:04;;;;;;;12.10;4.28;;;17.30;85.00;;;;;;5040212;28;20395;-79
2022/07/14 01:56:30;;;;;;;18.25;4.40;;;17.30;87.60;;;;;;5048719;28;20076;-79
2022/07/14 01:58:55;;;;;;;13.38;3.97;;;17.30;86.60;;;;;;5007504;28;20056;-79
2022/07/14 02:01:39;;;;;;;15.15;3.50;;;17.30;89.60;;;;;;5051315;28;20365;-79
2022/07/14 02:04:05;;;;;;;13.40;3.55;;;17.30;85.30;;;;;;5050430;28;20044;-79
2022/07/14 02:06:30;;;;;;;19.45;4.07;;;17.20;86.20;;;;;;5055573;28;20044;-79
2022/07/14 02:08:57;;;;;;;13.18;3.63;;;17.20;86.60;;;;;;5027807;28;20431;-79
2022/07/14 02:14:06;;;;;;;18.95;3.80;;;17.20;87.60;;;;;;5052459;28;20442;-79
2022/07/14 02:16:32;;;;;;;15.82;3.92;;;17.20;87.40;;;;;;5043344;28;20399;-79
2022/07/14 02:18:59;;;;;;;14.73;3.38;;;17.10;88.20;;;;;;5027907;28;20553;-79
2022/07/14 02:21:24;;;;;;;13.65;3.45;;;17.10;87.00;;;;;;5055186;28;20488;-79
2022/07/14 02:23:51;;;;;;;11.10;3.58;;;17.00;87.20;;;;;;5048859;28;20044;-79
2022/07/14 02:26:17;;;;;;;21.23;4.07;;;17.00;90.10;;;;;;5048522;28;20028;-79
2022/07/14 02:28:42;;;;;;;8.95;3.33;;;17.00;91.10;;;;;;5017361;28;20371;-79
2022/07/14 02:31:11;;;;;;;15.52;4.32;;;17.00;89.40;;;;;;5049251;28;20043;-79
2022/07/14 02:33:37;;;;;;;17.80;3.75;;;17.00;90.40;;;;;;5048953;28;20028;-79
2022/07/14 02:36:03;;;;;;;16.13;3.83;;;17.00;90.10;;;;;;5028354;28;20051;-79
2022/07/14 02:38:28;;;;;;;18.50;3.70;;;17.00;92.10;;;;;;5054577;28;20036;-79
2022/07/14 02:40:54;;;;;;;14.93;3.42;;;17.00;90.80;;;;;;5036598;28;20040;-79
2022/07/14 02:43:19;;;;;;;16.10;4.00;;;16.90;93.20;;;;;;5051879;28;20053;-79
2022/07/14 02:45:45;;;;;;;20.60;4.45;;;16.90;92.80;;;;;;5039802;28;20066;-79
2022/07/14 02:48:11;;;;;;;13.20;3.63;;;16.90;91.60;;;;;;5056157;28;20025;-79
2022/07/14 02:50:36;;;;;;;19.42;3.63;;;16.90;91.30;;;;;;5058846;28;20032;-79
2022/07/14 02:53:03;;;;;;;15.82;3.70;;;16.90;91.70;;;;;;5024539;28;20025;-79
2022/07/14 02:55:30;;;;;;;12.68;3.17;;;16.90;91.90;;;;;;5029479;28;20129;-79
2022/07/14 02:57:55;;;;;;;15.57;4.13;;;16.90;91.70;;;;;;5050105;28;20527;-79
2022/07/14 03:00:21;;;;;;;15.70;3.72;;;16.90;92.50;;;;;;5054133;28;20029;-79
2022/07/14 03:02:47;;;;;;;16.08;3.65;;;16.90;94.50;;;;;;5044407;28;20038;-79
2022/07/14 03:05:12;;;;;;;11.48;4.22;;;16.90;92.40;;;;;;5049564;28;20420;-79
2022/07/14 03:07:38;;;;;;;14.43;3.80;;;16.90;91.50;;;;;;5060570;28;20103;-79
2022/07/14 03:10:04;;;;;;;16.17;3.92;;;16.80;92.00;;;;;;5032452;28;20476;-79
2022/07/14 03:12:29;;;;;;;18.33;3.83;;;16.80;92.60;;;;;;5041284;28;20061;-79
2022/07/14 03:14:55;;;;;;;21.02;3.78;;;16.90;92.90;;;;;;5042846;28;20056;-79
2022/07/14 03:17:20;;;;;;;14.15;3.65;;;16.90;93.20;;;;;;5047932;28;20262;-79
2022/07/14 03:19:46;;;;;;;16.00;3.47;;;16.90;93.00;;;;;;5060809;28;20028;-79
2022/07/14 03:22:11;;;;;;;19.42;4.07;;;16.80;93.00;;;;;;5055611;28;20445;-79
2022/07/14 03:24:37;;;;;;;14.20;3.20;;;16.80;94.00;;;;;;5045212;28;20021;-79
2022/07/14 03:27:03;;;;;;;17.85;3.60;;;16.80;92.30;;;;;;5032852;28;20024;-79
2022/07/14 03:29:28;;;;;;;12.02;3.50;;;16.80;93.70;;;;;;5055134;28;20025;-79
2022/07/14 03:31:57;;;;;;;16.55;3.28;;;16.80;92.50;;;;;;5030580;28;20048;-79
2022/07/14 03:34:22;;;;;;;23.42;4.32;;;16.70;93.20;;;;;;5052960;28;20167;-79
2022/07/14 03:36:48;;;;;;;17.60;4.32;;;16.70;92.80;;;;;;5043992;28;20044;-79
2022/07/14 03:39:13;;;;;;;14.20;3.22;;;16.70;93.50;;;;;;5055944;28;20063;-79
2022/07/14 03:41:39;;;;;;;18.30;3.92;;;16.70;94.40;;;;;;5051339;28;20090;-79
2022/07/14 03:44:05;;;;;;;14.63;4.25;;;16.70;94.10;;;;;;5044751;28;20036;-79
2022/07/14 03:46:30;;;;;;;13.75;3.85;;;16.60;94.90;;;;;;5044227;28;20068;-79
2022/07/14 03:48:56;;;;;;;15.45;3.92;;;16.60;93.70;;;;;;5027604;28;20036;-79
2022/07/14 03:51:22;;;;;;;11.88;3.33;;;16.50;93.70;;;;;;5052938;28;20055;-79
2022/07/14 03:53:47;;;;;;;19.67;3.65;;;16.60;95.30;;;;;;5056807;28;20040;-78
2022/07/14 03:56:13;;;;;;;16.52;3.92;;;16.60;94.30;;;;;;5042761;28;20059;-78
2022/07/14 03:58:38;;;;;;;20.05;3.70;;;16.60;93.80;;;;;;5044560;28;20056;-78
2022/07/14 04:01:04;;;;;;;12.65;3.78;;;16.60;93.30;;;;;;5045016;28;20017;-78
2022/07/14 04:03:30;;;;;;;14.23;3.85;;;16.50;94.00;;;;;;5044296;28;20383;-78
2022/07/14 04:05:57;;;;;;;17.10;4.05;;;16.50;94.40;;;;;;5031425;28;20541;-78
2022/07/14 04:08:22;;;;;;;13.82;4.05;;;16.50;95.60;;;;;;5051712;28;20033;-78
2022/07/14 04:10:48;;;;;;;15.68;3.67;;;16.50;95.60;;;;;;5022807;28;20033;-78
2022/07/14 04:13:14;;;;;;;16.05;4.05;;;16.50;94.30;;;;;;5039690;28;20036;-78
2022/07/14 04:15:41;;;;;;;29.42;4.65;;;16.50;95.20;;;;;;5056354;28;20032;-78
2022/07/14 04:18:07;;;;;;;14.73;3.47;;;16.50;95.40;;;;;;5053090;28;20271;-78
2022/07/14 04:20:32;;;;;;;17.10;3.88;;;16.50;96.10;;;;;;5025891;28;20073;-79
2022/07/14 04:22:58;;;;;;;15.55;3.38;;;16.60;94.10;;;;;;5047333;28;20640;-79
2022/07/14 04:25:23;;;;;;;16.17;3.70;;;16.50;94.90;;;;;;5050133;28;20023;-79
2022/07/14 04:27:49;;;;;;;18.70;4.90;;;16.50;96.00;;;;;;5041154;28;20035;-79
2022/07/14 04:30:15;;;;;;;22.00;3.70;;;16.50;94.90;;;;;;5058470;28;20424;-79
2022/07/14 04:32:40;;;;;;;15.13;4.20;;;16.60;95.60;;;;;;5052075;28;20392;-79
2022/07/14 04:35:06;;;;;;;23.10;5.15;;;16.60;95.80;;;;;;5043386;28;20041;-78
2022/07/14 04:37:32;;;;;;;20.98;4.75;;;16.50;95.70;;;;;;5027238;28;20032;-79
2022/07/14 04:39:57;;;;;;;13.57;3.33;;;16.60;96.10;;;;;;5052891;28;20388;-79
2022/07/14 04:42:23;;;;;;;20.58;4.22;;;16.60;95.30;;;;;;5053085;28;20041;-81
2022/07/14 04:44:49;;;;;;;25.48;5.35;;;16.60;95.40;;;;;;5050044;28;20021;-79
2022/07/14 04:47:15;;;;;;;14.93;4.13;;;16.60;95.60;;;;;;5037160;28;20112;-80
2022/07/14 04:52:27;;;;;;;21.95;4.28;;;16.60;95.20;;;;;;5049775;28;20047;-79
2022/07/14 04:54:53;;;;;;;15.15;3.35;;;16.60;95.40;;;;;;5029660;28;20031;-80
2022/07/14 04:57:19;;;;;;;20.42;4.10;;;16.60;95.20;;;;;;5051597;28;20017;-79
2022/07/14 04:59:45;;;;;;;14.85;3.75;;;16.40;95.40;;;;;;5054098;28;20045;-79
2022/07/14 05:02:11;;;;;;;16.98;3.63;;;16.60;95.60;;;;;;5042307;28;20465;-79
2022/07/14 05:04:36;;;;;;;25.00;5.70;;;16.70;95.90;;;;;;5044338;28;20049;-79
2022/07/14 05:07:02;;;;;;;19.10;3.38;;;16.80;95.90;;;;;;5019719;28;20033;-79
2022/07/14 05:09:37;;;;;;;19.88;3.33;;;16.70;95.20;;;;;;5051123;28;20024;-79
2022/07/14 05:12:02;;;;;;;19.25;3.53;;;16.80;95.20;;;;;;5016014;28;20100;-79
2022/07/14 05:14:29;;;;;;;22.05;5.15;;;16.80;94.80;;;;;;5053386;28;20588;-79
2022/07/14 05:16:55;;;;;;;15.32;3.25;;;16.90;94.50;;;;;;5007664;28;20112;-79
2022/07/14 05:19:20;;;;;;;17.35;4.10;;;16.90;94.10;;;;;;5049273;28;20167;-79
2022/07/14 05:21:46;;;;;;;18.60;4.80;;;16.90;94.50;;;;;;5039737;28;20342;-80
2022/07/14 05:24:12;;;;;;;17.00;3.83;;;17.00;95.10;;;;;;5048789;28;20037;-79
2022/07/14 05:26:38;;;;;;;20.55;4.43;;;17.10;95.60;;;;;;5040351;28;20028;-79
2022/07/14 05:29:03;;;;;;;15.43;4.38;;;17.20;95.40;;;;;;5025189;28;20112;-79
2022/07/14 05:31:29;;;;;;;20.17;4.32;;;17.40;95.40;;;;;;5052062;28;20079;-79
2022/07/14 05:33:57;;;;;;;18.00;5.03;;;17.70;95.50;;;;;;5009313;28;20115;-79
2022/07/14 05:36:24;;;;;;;23.20;4.95;;;17.90;96.10;;;;;;5047823;28;20037;-79
2022/07/14 05:38:49;;;;;;;18.20;3.45;;;18.10;95.90;;;;;;5039000;28;20095;-79
2022/07/14 05:41:15;;;;;;;15.93;4.00;;;18.40;95.70;;;;;;5041897;28;20037;-79
2022/07/14 05:43:41;;;;;;;15.75;4.03;;;18.60;95.70;;;;;;5035873;28;20044;-79
2022/07/14 05:46:08;;;;;;;17.25;4.30;;;18.90;95.50;;;;;;5039766;28;20032;-79
2022/07/14 05:48:34;;;;;;;22.30;4.28;;;19.10;95.20;;;;;;5049635;28;20492;-79
2022/07/14 05:51:08;;;;;;;22.48;4.10;;;19.30;95.20;;;;;;5044934;28;20032;-79
2022/07/14 05:53:35;;;;;;;13.35;3.10;;;19.60;95.00;;;;;;5036052;28;20056;-79
2022/07/14 05:56:01;;;;;;;20.98;4.32;;;19.90;94.70;;;;;;5052115;28;20055;-79
2022/07/14 05:58:27;;;;;;;17.08;4.00;;;20.20;94.40;;;;;;5040962;28;20029;-79
2022/07/14 06:00:52;;;;;;;17.20;3.67;;;20.40;93.70;;;;;;5052335;28;20426;-79
2022/07/14 06:03:19;;;;;;;20.15;3.90;;;20.60;93.50;;;;;;5052932;28;20025;-79
2022/07/14 06:05:45;;;;;;;13.77;3.13;;;20.90;93.00;;;;;;5051951;28;20503;-79
2022/07/14 06:08:10;;;;;;;19.42;3.90;;;21.00;92.80;;;;;;5053215;28;20035;-79
2022/07/14 06:10:36;;;;;;;18.50;4.07;;;21.30;92.50;;;;;;5043260;28;20032;-80
2022/07/14 06:13:03;;;;;;;26.08;4.00;;;21.40;92.10;;;;;;5049993;28;20037;-79
2022/07/14 06:15:29;;;;;;;18.85;3.83;;;21.60;91.60;;;;;;5051184;28;20052;-80
2022/07/14 06:17:55;;;;;;;15.98;3.58;;;21.90;91.70;;;;;;5047435;28;20048;-79
2022/07/14 06:20:21;;;;;;;16.15;3.90;;;22.10;91.00;;;;;;5049196;28;20029;-80
2022/07/14 06:22:47;;;;;;;14.25;3.47;;;22.40;90.50;;;;;;5050000;28;20063;-80
2022/07/14 06:25:13;;;;;;;15.07;3.85;;;22.50;90.20;;;;;;5049243;28;20141;-80
2022/07/14 06:27:38;;;;;;;15.57;3.13;;;22.70;90.00;;;;;;5041861;28;20029;-79
2022/07/14 06:30:05;;;;;;;13.43;3.70;;;22.90;88.80;;;;;;5001084;28;20036;-80
2022/07/14 06:32:31;;;;;;;21.42;4.65;;;23.10;88.50;;;;;;5033492;28;20036;-80
2022/07/14 06:34:57;;;;;;;9.90;2.75;;;23.30;87.10;;;;;;5028403;28;20029;-80
2022/07/14 06:37:22;;;;;;;17.45;3.78;;;23.40;86.20;;;;;;5052328;28;20021;-80
2022/07/14 06:39:48;;;;;;;17.33;3.55;;;23.60;86.10;;;;;;5052514;28;20455;-80
2022/07/14 06:42:13;;;;;;;21.05;4.45;;;23.80;85.00;;;;;;5049684;28;20433;-80
2022/07/14 06:44:42;;;;;;;17.50;3.85;;;24.20;81.80;;;;;;5043835;28;20046;-82
2022/07/14 06:47:08;;;;;;;15.20;3.60;;;24.30;81.80;;;;;;5050928;28;20099;-80
2022/07/14 06:49:34;;;;;;;14.18;3.72;;;24.40;80.30;;;;;;5037145;28;20425;-80
2022/07/14 06:51:59;;;;;;;14.15;3.55;;;24.20;79.30;;;;;;5049855;28;20131;-81
2022/07/14 06:54:25;;;;;;;15.15;3.28;;;24.30;79.10;;;;;;5050251;28;20114;-81
2022/07/14 06:56:51;;;;;;;14.82;4.82;;;24.20;78.50;;;;;;5036742;28;20494;-80
2022/07/14 06:59:17;;;;;;;32.35;4.78;;;24.20;79.30;;;;;;5053807;28;20027;-80
2022/07/14 07:01:42;;;;;;;25.27;4.10;;;24.30;78.20;;;;;;5039466;28;20029;-81
2022/07/14 07:04:08;;;;;;;16.42;3.80;;;24.40;78.00;;;;;;5042692;28;20029;-81
2022/07/14 07:06:54;;;;;;;13.45;3.13;;;24.40;77.40;;;;;;5038675;28;20040;-81
2022/07/14 07:09:19;;;;;;;16.02;4.00;;;24.30;76.90;;;;;;5054842;28;20080;-81
2022/07/14 07:11:45;;;;;;;13.02;3.38;;;24.30;76.70;;;;;;5046172;28;20633;-80
2022/07/14 07:14:12;;;;;;;11.35;3.70;;;24.40;76.70;;;;;;5055903;28;20033;-81
2022/07/14 07:16:37;;;;;;;22.65;4.25;;;24.40;75.90;;;;;;5040429;28;20143;-80
2022/07/14 07:19:03;;;;;;;21.70;3.85;;;24.40;75.90;;;;;;5029716;28;20320;-81
2022/07/14 07:21:29;;;;;;;11.95;3.90;;;24.50;74.90;;;;;;5051987;28;20033;-81
2022/07/14 07:23:54;;;;;;;15.15;3.25;;;24.40;74.80;;;;;;5014631;28;20162;-81
2022/07/14 07:26:22;;;;;;;16.17;3.97;;;24.40;74.90;;;;;;5054595;28;20052;-80
2022/07/14 07:28:48;;;;;;;14.98;4.25;;;24.40;74.10;;;;;;5054070;28;20083;-81
2022/07/14 07:31:16;;;;;;;15.57;3.55;;;24.30;74.10;;;;;;5040687;28;20033;-80
2022/07/14 07:33:41;;;;;;;10.02;2.92;;;24.30;74.00;;;;;;5050666;28;20033;-81
2022/07/14 07:36:07;;;;;;;13.52;3.30;;;24.30;74.00;;;;;;5051059;28;20036;-80
2022/07/14 07:38:32;;;;;;;17.33;4.45;;;24.30;73.50;;;;;;5022234;28;20040;-81
2022/07/14 07:41:00;;;;;;;13.05;3.60;;;24.20;73.60;;;;;;5025889;28;20020;-81
2022/07/14 07:43:26;;;;;;;11.82;3.95;;;24.20;73.70;;;;;;5042865;28;20040;-81
2022/07/14 07:45:52;;;;;;;16.27;3.58;;;24.20;73.90;;;;;;5045260;28;20098;-81
2022/07/14 07:48:17;;;;;;;14.45;3.65;;;24.30;73.20;;;;;;5051914;28;20480;-81
2022/07/14 07:50:44;;;;;;;15.80;3.70;;;24.30;73.40;;;;;;5040253;28;20538;-81
2022/07/14 07:53:10;;;;;;;15.55;3.33;;;24.40;73.10;;;;;;5040084;28;20059;-81
2022/07/14 07:55:35;;;;;;;11.57;3.58;;;24.40;72.40;;;;;;5056792;28;20105;-81
2022/07/14 07:58:01;;;;;;;13.85;3.30;;;24.30;72.30;;;;;;5041309;28;20036;-81
2022/07/14 08:00:27;;;;;;;11.43;2.47;;;24.40;72.30;;;;;;5056362;28;20353;-81
2022/07/14 08:02:53;;;;;;;14.93;3.47;;;24.40;72.30;;;;;;5045472;28;20033;-81
2022/07/14 08:05:19;;;;;;;13.02;3.15;;;24.40;72.60;;;;;;5051228;28;20025;-80
2022/07/14 08:07:45;;;;;;;16.67;3.40;;;24.80;71.20;;;;;;5043525;28;20078;-80
2022/07/14 08:10:10;;;;;;;9.18;2.45;;;25.00;71.00;;;;;;5046177;28;20442;-81
2022/07/14 08:12:36;;;;;;;18.83;3.97;;;25.10;70.70;;;;;;5043534;28;20036;-81
2022/07/14 08:15:01;;;;;;;18.15;2.83;;;25.50;68.70;;;;;;5051941;28;20032;-81
2022/07/14 08:17:27;;;;;;;8.68;2.95;;;25.70;68.30;;;;;;5054608;28;20400;-81
2022/07/14 08:19:52;;;;;;;16.00;2.85;;;25.80;68.50;;;;;;5043185;28;20167;-81
2022/07/14 08:22:22;;;;;;;11.05;3.35;;;26.10;68.90;;;;;;5046222;28;20087;-81
2022/07/14 08:24:48;;;;;;;12.95;2.63;;;26.50;67.90;;;;;;5053075;28;20438;-81
2022/07/14 08:27:13;;;;;;;13.52;2.83;;;26.80;66.00;;;;;;5044092;28;20044;-81
2022/07/14 08:29:39;;;;;;;10.07;2.35;;;27.10;66.00;;;;;;5052480;28;20111;-82
2022/07/14 08:32:05;;;;;;;13.15;2.53;;;27.20;64.00;;;;;;5043015;28;20496;-81
2022/07/14 08:34:31;;;;;;;11.02;3.03;;;27.10;60.30;;;;;;5053007;28;20110;-82
2022/07/14 08:36:58;;;;;;;13.32;3.13;;;27.20;62.90;;;;;;5011952;28;20148;-82
2022/07/14 08:39:24;;;;;;;14.13;3.47;;;27.60;61.10;;;;;;5050986;28;20115;-82
2022/07/14 08:41:50;;;;;;;11.18;3.00;;;27.80;60.40;;;;;;5049345;28;20205;-82
2022/07/14 08:44:16;;;;;;;9.45;2.67;;;27.80;62.90;;;;;;5053954;28;20391;-82
2022/07/14 08:46:42;;;;;;;8.50;2.20;;;28.00;60.50;;;;;;5046041;28;20028;-82
2022/07/14 08:49:07;;;;;;;9.80;2.15;;;28.20;58.50;;;;;;5052231;28;20035;-82
2022/07/14 08:51:33;;;;;;;8.98;2.00;;;28.20;57.20;;;;;;5048909;28;20036;-82
2022/07/14 08:54:00;;;;;;;12.65;2.67;;;28.50;55.70;;;;;;5013360;28;20836;-82
2022/07/14 08:56:26;;;;;;;11.63;2.38;;;28.70;56.60;;;;;;5048224;28;20496;-82
2022/07/14 08:58:51;;;;;;;7.53;1.70;;;28.80;56.90;;;;;;5050569;28;20043;-82
2022/07/14 09:01:17;;;;;;;5.03;1.77;;;28.80;55.50;;;;;;5038275;28;20032;-82
2022/07/14 09:03:43;;;;;;;7.50;1.85;;;29.00;55.40;;;;;;5050982;28;20082;-82
2022/07/14 09:06:08;;;;;;;10.50;2.25;;;29.10;55.10;;;;;;5034522;28;20025;-82
2022/07/14 09:08:54;;;;;;;7.30;1.77;;;29.20;54.80;;;;;;5043384;28;20120;-82
2022/07/14 09:11:20;;;;;;;10.98;2.53;;;29.40;54.80;;;;;;5030672;28;20492;-82
2022/07/14 09:13:45;;;;;;;7.57;2.00;;;29.60;55.00;;;;;;5011108;28;20037;-82
2022/07/14 09:16:23;;;;;;;6.15;1.70;;;30.00;51.30;;;;;;5042960;28;20036;-82
2022/07/14 09:19:01;;;;;;;7.68;1.90;;;30.20;51.70;;;;;;5053650;28;20575;-82
2022/07/14 09:21:26;;;;;;;14.02;1.77;;;30.20;50.50;;;;;;5049506;28;20035;-82
2022/07/14 09:23:54;;;;;;;5.05;1.52;;;30.30;47.40;;;;;;5055405;28;20028;-82
2022/07/14 09:26:20;;;;;;;5.47;1.20;;;30.20;49.80;;;;;;5043412;28;20052;-83
2022/07/14 09:28:47;;;;;;;6.38;2.15;;;30.30;50.00;;;;;;5028505;28;20059;-83
2022/07/14 09:31:23;;;;;;;8.57;1.70;;;30.50;46.60;;;;;;5036899;28;20033;-83
2022/07/14 09:33:49;;;;;;;;;;;30.30;46.70;;;;;;5037407;28;20105;-83
2022/07/14 09:36:36;;;;;;;5.72;1.70;;;30.10;47.50;;;;;;5053818;28;19936;-83
2022/07/14 09:39:06;;;;;;;5.88;1.80;;;30.40;49.20;;;;;;5035082;28;20037;-84
2022/07/14 09:41:48;;;;;;;6.20;1.35;;;30.40;47.60;;;;;;5042161;28;20047;-84
2022/07/14 09:44:17;;;;;;;4.45;1.15;;;30.40;46.70;;;;;;5030171;28;20110;-83
2022/07/14 09:46:48;;;;;;;7.78;1.50;;;30.20;45.70;;;;;;5053868;28;20056;-83
2022/07/14 09:49:15;;;;;;;6.65;1.30;;;30.30;46.30;;;;;;5058850;28;20025;-84
2022/07/14 09:51:56;;;;;;;8.38;1.73;;;30.30;45.10;;;;;;5053226;28;20043;-84
2022/07/14 09:54:37;;;;;;;5.25;1.75;;;30.30;45.90;;;;;;5036416;28;20024;-84
2022/07/14 09:57:12;;;;;;;6.78;1.33;;;30.50;45.50;;;;;;5051102;28;20033;-84
2022/07/14 09:59:53;;;;;;;7.23;1.50;;;30.70;43.30;;;;;;5052101;28;20032;-84
2022/07/14 10:02:26;;;;;;;5.22;1.30;;;30.70;44.70;;;;;;5022393;28;20028;-85
2022/07/14 10:04:54;;;;;;;3.80;1.10;;;30.40;45.40;;;;;;5050698;28;20040;-85
2022/07/14 10:07:19;;;;;;;6.35;1.38;;;30.50;45.50;;;;;;5036590;28;20428;-85
2022/07/14 10:09:55;;;;;;;4.00;1.20;;;30.70;44.90;;;;;;5054763;28;20128;-85
2022/07/14 10:12:22;;;;;;;5.85;1.48;;;30.80;42.90;;;;;;5020684;28;20321;-85
2022/07/14 10:14:48;;;;;;;6.55;1.10;;;30.30;41.90;;;;;;5037337;28;20041;-85
2022/07/14 10:17:14;;;;;;;4.93;1.35;;;30.70;43.30;;;;;;5048219;28;20094;-86
2022/07/14 10:19:40;;;;;;;3.88;1.15;;;30.90;45.60;;;;;;5053700;28;20032;-86
2022/07/14 10:22:05;;;;;;;7.53;1.20;;;31.10;41.40;;;;;;5041313;28;20094;-86
2022/07/14 10:24:31;;;;;;;7.72;1.40;;;31.10;41.90;;;;;;5052346;28;20464;-87
2022/07/14 10:26:56;;;;;;;7.75;1.60;;;31.10;41.10;;;;;;5045946;28;20029;-87
2022/07/14 10:29:22;;;;;;;4.20;1.20;;;31.10;41.20;;;;;;5052127;28;20035;-87
2022/07/14 10:32:20;;;;;;;7.57;1.67;;;31.10;42.50;;;;;;5042836;28;20071;-87
2022/07/14 10:35:15;;;;;;;5.30;1.30;;;31.20;42.10;;;;;;5027933;28;20044;-87
2022/07/14 10:38:15;;;;;;;4.97;1.60;;;31.30;42.20;;;;;;5045887;28;20399;-87
2022/07/14 10:41:09;;;;;;;6.55;1.55;;;31.60;42.70;;;;;;5052104;28;20108;-88
2022/07/14 10:43:57;;;;;;;3.45;1.23;;;31.50;42.00;;;;;;5051392;28;20049;-88
2022/07/14 10:46:35;;;;;;;2.35;0.90;;;31.60;40.90;;;;;;5051043;28;20460;-88
2022/07/14 10:49:01;;;;;;;4.43;1.30;;;31.60;42.50;;;;;;5042665;28;20551;-87
2022/07/14 10:51:27;;;;;;;5.60;1.00;;;31.80;42.80;;;;;;5054774;28;20033;-87
2022/07/14 10:54:12;;;;;;;5.15;1.20;;;31.90;41.80;;;;;;5054077;28;20029;-86
2022/07/14 10:56:39;;;;;;;3.92;1.30;;;32.00;40.30;;;;;;5047947;28;20049;-87
2022/07/14 10:59:26;;;;;;;6.72;1.30;;;32.00;41.20;;;;;;5037902;28;20033;-87
2022/07/14 11:02:13;;;;;;;7.55;1.67;;;32.30;42.50;;;;;;5036513;28;20029;-87
2022/07/14 11:04:59;;;;;;;5.13;1.00;;;32.60;41.60;;;;;;5057630;28;20511;-86
2022/07/14 11:07:41;;;;;;;6.53;1.88;;;32.70;41.60;;;;;;5054883;28;20426;-85
2022/07/14 11:10:19;;;;;;;5.90;1.17;;;32.50;41.20;;;;;;5041774;28;20033;-84
2022/07/14 11:13:02;;;;;;;5.97;1.88;;;32.60;42.20;;;;;;5041703;28;20043;-86
2022/07/14 11:15:41;;;;;;;3.13;1.20;;;32.70;41.20;;;;;;5054437;28;20036;-86
2022/07/14 11:18:18;;;;;;;6.13;1.17;;;32.90;40.10;;;;;;5056090;28;20094;-86
2022/07/14 11:21:07;;;;;;;6.60;1.20;;;33.00;40.00;;;;;;5056950;28;20113;-86
2022/07/14 11:23:53;;;;;;;4.57;1.48;;;33.20;38.90;;;;;;5052383;28;20111;-86
2022/07/14 11:26:41;;;;;;;4.35;1.10;;;33.20;37.00;;;;;;5056793;28;20079;-86
2022/07/14 11:29:08;;;;;;;4.85;1.50;;;33.10;38.80;;;;;;5047629;28;20032;-86
2022/07/14 11:31:50;;;;;;;6.68;1.77;;;33.10;39.20;;;;;;5054300;28;20074;-83
2022/07/14 11:37:03;;;;;;;2.58;1.00;;;33.20;37.00;;;;;;5054911;28;20073;-86
2022/07/14 11:39:39;;;;;;;3.15;1.08;;;33.40;36.20;;;;;;5050445;28;20029;-86
2022/07/14 11:42:12;;;;;;;6.70;1.40;;;33.00;36.10;;;;;;5050729;28;20064;-85
2022/07/14 11:44:40;;;;;;;7.43;1.42;;;33.00;38.30;;;;;;5037380;28;20040;-86
2022/07/14 11:47:19;;;;;;;1.63;1.08;;;32.80;38.90;;;;;;5057620;28;20112;-85
2022/07/14 11:49:53;;;;;;;4.53;1.20;;;33.10;38.20;;;;;;5056878;28;20094;-84
2022/07/14 11:52:30;;;;;;;2.80;1.00;;;33.10;38.70;;;;;;5044057;28;20044;-86
2022/07/14 11:54:56;;;;;;;4.03;1.35;;;33.30;36.10;;;;;;5054349;28;20039;-84
2022/07/14 11:57:22;;;;;;;4.32;1.35;;;33.10;37.70;;;;;;5050020;28;20036;-85
2022/07/14 11:59:48;;;;;;;2.80;1.23;;;32.80;37.30;;;;;;5051209;28;20033;-85
2022/07/14 12:02:18;;;;;;;3.65;1.10;;;33.00;35.80;;;;;;5053116;28;20136;-84
2022/07/14 12:05:02;;;;;;;3.67;1.13;;;33.10;36.90;;;;;;5054899;28;20106;-85
2022/07/14 12:07:47;;;;;;;4.22;1.35;;;33.00;37.90;;;;;;5054954;28;20039;-85
2022/07/14 12:10:13;;;;;;;4.00;1.13;;;33.30;39.00;;;;;;5054814;28;20481;-84
2022/07/14 12:12:40;;;;;;;5.05;1.10;;;33.50;39.40;;;;;;5052942;28;20484;-85
2022/07/14 12:15:07;;;;;;;6.13;1.50;;;33.60;37.80;;;;;;5011661;28;20195;-84
2022/07/14 12:17:45;;;;;;;4.88;1.33;;;33.70;37.60;;;;;;5049209;28;20052;-86
2022/07/14 12:20:10;;;;;;;3.00;1.33;;;34.00;37.20;;;;;;5038994;28;20029;-86
2022/07/14 12:22:51;;;;;;;4.63;1.50;;;33.90;37.20;;;;;;5044496;28;20154;-85
2022/07/14 12:25:27;;;;;;;3.95;1.20;;;34.40;35.20;;;;;;5041819;28;20495;-85
2022/07/14 12:27:54;;;;;;;4.57;1.35;;;34.40;36.50;;;;;;5050933;28;20055;-86
2022/07/14 12:30:20;;;;;;;3.17;1.20;;;34.40;36.00;;;;;;5044606;28;20068;-85
2022/07/14 12:32:50;;;;;;;8.23;1.85;;;34.40;34.30;;;;;;5032649;28;20456;-85
2022/07/14 12:35:15;;;;;;;3.58;1.45;;;34.30;34.80;;;;;;5051076;28;20380;-85
2022/07/14 12:37:41;;;;;;;5.13;1.65;;;34.30;36.60;;;;;;5053037;28;20021;-85
2022/07/14 12:40:07;;;;;;;4.70;1.50;;;34.60;35.80;;;;;;5050875;28;20029;-81
2022/07/14 12:42:32;;;;;;;4.93;1.33;;;34.80;34.30;;;;;;5053628;28;20033;-86
2022/07/14 12:45:07;;;;;;;4.40;1.58;;;34.60;34.70;;;;;;5031327;28;20028;-85
2022/07/14 12:47:55;;;;;;;5.65;1.45;;;34.60;35.10;;;;;;5051644;28;20032;-86
2022/07/14 12:50:22;;;;;;;2.35;1.10;;;34.40;34.30;;;;;;5045054;28;20500;-84
2022/07/14 12:52:50;;;;;;;3.45;1.33;;;34.20;34.60;;;;;;5044550;28;20036;-85
2022/07/14 12:55:44;;;;;;;3.28;0.85;;;34.10;35.90;;;;;;5041327;28;20074;-86